This is the latest recevied weather packets stored in our database for station/object OH2NJR. If no packets are shown the sender has not sent any weather packets the latest 10 day(s).
| Time | Temp. | Humidity | Pressure | Rain* | Wind** | Luminosity | Snow |
|---|---|---|---|---|---|---|---|
| 1777959500 | 6.67° C | 84% | 1001.1 hPa | 0 mm | - | - | - |
| 1777958363 | 6.11° C | 85% | 1001.1 hPa | 0 mm | - | - | - |
| 1777957303 | 6.11° C | 87% | 1001.2 hPa | 0 mm | - | - | - |
| 1777956263 | 4.44° C | 100% | 1001.3 hPa | 0 mm | - | - | - |
| 1777955110 | 4.44° C | 100% | 1001.5 hPa | 0 mm | - | - | - |
| 1777954088 | 3.89° C | 100% | 1001.7 hPa | 0 mm | - | - | - |
| 1777952913 | 3.89° C | 100% | 1001.8 hPa | 0 mm | - | - | - |
| 1777951753 | 3.89° C | 100% | 1001.7 hPa | 0 mm | - | - | - |
| 1777950603 | 3.89° C | 99% | 1002 hPa | 0 mm | - | - | - |
| 1777949488 | 5° C | 98% | 1001.8 hPa | 0 mm | - | - | - |
| 1777948333 | 5° C | 97% | 1002 hPa | 0 mm | - | - | - |
| 1777947283 | 5.56° C | 97% | 1002.3 hPa | 0 mm | - | - | - |
| 1777946268 | 5.56° C | 97% | 1002.3 hPa | 0 mm | - | - | - |
| 1777945260 | 5.56° C | 96% | 1002.3 hPa | 0 mm | - | - | - |
| 1777944081 | 5.56° C | - | - | 0 mm | - | - | - |
| 1777944078 | 5.56° C | 95% | 1002.5 hPa | 0 mm | - | - | - |
| 1777943113 | 5.56° C | 95% | 1002.4 hPa | 0 mm | - | - | - |
| 1777941940 | 5.56° C | 98% | 1002.4 hPa | 0 mm | - | - | - |
| 1777940828 | 5.56° C | 99% | 1002.4 hPa | 0 mm | - | - | - |
| 1777939828 | 5.56° C | 100% | 1002.6 hPa | 0 mm | - | - | - |
| 1777938858 | 5° C | 99% | 1002.3 hPa | 0 mm | - | - | - |
| 1777937860 | 5° C | 100% | 1002.4 hPa | 0 mm | - | - | - |
| 1777936788 | 5° C | 100% | 1002.4 hPa | 0 mm | - | - | - |
| 1777935703 | 5.56° C | 100% | 1002.7 hPa | 0 mm | - | - | - |
| 1777934548 | 5.56° C | 99% | 1002.7 hPa | 0 mm | - | - | - |
* Rain latest hour (hover to see other rain measurements)
** Current wind speed in m/s (hover to see current wind gust speed)